createdAt,value
2022-10-17T00:00:06.459Z,101843.50
2022-10-17T00:02:33.034Z,101852.34
2022-10-17T00:04:59.522Z,101860.31
2022-10-17T00:07:26.339Z,101855.47
2022-10-17T00:09:53.142Z,101842.44
2022-10-17T00:12:19.647Z,101840.56
2022-10-17T00:14:46.110Z,101844.75
2022-10-17T00:17:12.597Z,101851.03
2022-10-17T00:19:39.116Z,101854.63
2022-10-17T00:22:05.642Z,101860.69
2022-10-17T00:24:32.417Z,101857.75
2022-10-17T00:26:58.939Z,101858.59
2022-10-17T00:29:25.694Z,101860.28
2022-10-17T00:31:56.202Z,101860.28
2022-10-17T00:34:23.596Z,101861.09
2022-10-17T00:36:50.192Z,101856.47
2022-10-17T00:39:16.728Z,101848.09
2022-10-17T00:41:43.270Z,101854.38
2022-10-17T00:44:31.400Z,101859.59
2022-10-17T00:47:00.943Z,101849.72
2022-10-17T00:49:32.899Z,101855.00
2022-10-17T00:52:15.666Z,101866.53
2022-10-17T00:54:48.421Z,101877.22
2022-10-17T00:57:16.815Z,101876.41
2022-10-17T00:59:47.222Z,101879.13
2022-10-17T01:02:17.169Z,101877.03
2022-10-17T01:04:46.873Z,101879.56
2022-10-17T01:07:13.547Z,101874.91
2022-10-17T01:09:42.532Z,101875.53
2022-10-17T01:12:42.883Z,101877.00
2022-10-17T01:15:21.173Z,101866.91
2022-10-17T01:17:53.782Z,101863.97
2022-10-17T01:20:29.544Z,101845.69
2022-10-17T01:23:08.056Z,101847.16
2022-10-17T01:26:12.733Z,101850.09
2022-10-17T01:28:54.432Z,101863.75
2022-10-17T01:31:25.622Z,101861.63
2022-10-17T01:34:12.436Z,101851.34
2022-10-17T01:36:59.301Z,101859.31
2022-10-17T01:39:41.623Z,101849.22
2022-10-17T01:42:23.827Z,101847.94
2022-10-17T01:44:59.959Z,101850.47
2022-10-17T01:47:32.047Z,101839.56
2022-10-17T01:50:05.456Z,101826.50
2022-10-17T01:52:43.044Z,101817.03
2022-10-17T01:55:23.732Z,101818.47
2022-10-17T01:57:57.872Z,101805.69
2022-10-17T02:00:27.412Z,101796.63
2022-10-17T02:02:59.084Z,101789.06
2022-10-17T02:05:31.363Z,101781.47
2022-10-17T02:07:58.212Z,101792.38
2022-10-17T02:10:42.503Z,101791.34
2022-10-17T02:13:22.380Z,101791.97
2022-10-17T02:16:00.435Z,101790.91
2022-10-17T02:18:36.359Z,101784.19
2022-10-17T02:21:30.568Z,101782.50
2022-10-17T02:24:45.632Z,101783.94
2022-10-17T02:27:16.682Z,101772.78
2022-10-17T02:29:50.316Z,101780.75
2022-10-17T02:32:35.529Z,101778.03
2022-10-17T02:35:05.959Z,101778.44
2022-10-17T02:37:33.878Z,101773.78
2022-10-17T02:40:02.013Z,101773.59
2022-10-17T02:42:31.073Z,101764.53
2022-10-17T02:45:01.614Z,101766.84
2022-10-17T02:47:43.565Z,101770.41
2022-10-17T02:50:10.765Z,101759.25
2022-10-17T02:52:46.577Z,101742.84
2022-10-17T02:55:29.347Z,101751.66
2022-10-17T02:58:11.386Z,101738.81
2022-10-17T03:00:41.375Z,101734.22
2022-10-17T03:03:29.599Z,101745.16
2022-10-17T03:05:56.155Z,101737.53
2022-10-17T03:08:23.827Z,101737.53
2022-10-17T03:10:50.821Z,101756.44
2022-10-17T03:13:18.891Z,101760.03
2022-10-17T03:15:45.447Z,101737.94
2022-10-17T03:18:12.299Z,101744.22
2022-10-17T03:20:38.813Z,101736.88
2022-10-17T03:23:05.377Z,101731.19
2022-10-17T03:25:31.893Z,101723.81
2022-10-17T03:28:02.416Z,101732.88
2022-10-17T03:30:29.342Z,101733.91
2022-10-17T03:32:57.838Z,101730.97
2022-10-17T03:35:24.867Z,101729.09
2022-10-17T03:37:51.381Z,101724.44
2022-10-17T03:40:17.959Z,101724.66
2022-10-17T03:42:44.460Z,101718.97
2022-10-17T03:45:11.155Z,101723.63
2022-10-17T03:47:37.625Z,101730.72
2022-10-17T03:50:04.775Z,101738.72
2022-10-17T03:52:31.233Z,101729.44
2022-10-17T03:54:58.108Z,101725.25
2022-10-17T03:57:24.609Z,101730.53
2022-10-17T03:59:52.456Z,101733.25
2022-10-17T04:02:19.030Z,101732.41
2022-10-17T04:04:45.617Z,101718.50
2022-10-17T04:07:12.140Z,101720.41
2022-10-17T04:09:38.644Z,101719.38
2022-10-17T04:12:05.365Z,101719.38
2022-10-17T04:14:31.867Z,101713.03
2022-10-17T04:16:58.568Z,101721.25
2022-10-17T04:19:26.004Z,101717.69
2022-10-17T04:21:52.559Z,101722.34
2022-10-17T04:24:19.107Z,101716.00
2022-10-17T04:26:46.220Z,101716.25
2022-10-17T04:29:12.785Z,101719.78
2022-10-17T04:31:39.276Z,101720.66
2022-10-17T04:34:05.775Z,101716.47
2022-10-17T04:36:32.281Z,101707.88
2022-10-17T04:39:01.796Z,101709.78
2022-10-17T04:41:28.348Z,101707.25
2022-10-17T04:43:54.995Z,101705.38
2022-10-17T04:46:21.609Z,101710.84
2022-10-17T04:48:48.151Z,101711.88
2022-10-17T04:51:18.739Z,101706.88
2022-10-17T04:53:56.438Z,101714.47
2022-10-17T04:56:24.677Z,101712.78
2022-10-17T04:58:51.582Z,101701.25
2022-10-17T05:01:20.707Z,101705.03
2022-10-17T05:03:47.946Z,101698.13
2022-10-17T05:06:17.800Z,101699.19
2022-10-17T05:08:44.367Z,101703.19
2022-10-17T05:11:23.416Z,101699.84
2022-10-17T05:13:54.808Z,101691.03
2022-10-17T05:16:22.261Z,101688.75
2022-10-17T05:18:52.924Z,101686.47
2022-10-17T05:21:20.832Z,101680.38
2022-10-17T05:23:47.547Z,101690.72
2022-10-17T05:26:14.360Z,101690.94
2022-10-17T05:28:40.893Z,101692.22
2022-10-17T05:31:10.344Z,101687.81
2022-10-17T05:33:37.748Z,101700.84
2022-10-17T05:36:05.166Z,101700.25
2022-10-17T05:38:31.683Z,101688.22
2022-10-17T05:41:03.157Z,101693.09
2022-10-17T05:43:30.611Z,101694.16
2022-10-17T05:45:57.419Z,101690.19
2022-10-17T05:48:24.352Z,101674.03
2022-10-17T05:50:58.171Z,101676.97
2022-10-17T05:53:24.636Z,101674.06
2022-10-17T05:56:02.367Z,101678.47
2022-10-17T06:01:15.611Z,101674.50
2022-10-17T06:03:42.111Z,101679.34
2022-10-17T06:06:11.641Z,101688.63
2022-10-17T06:08:38.250Z,101678.75
2022-10-17T06:11:07.676Z,101674.13
2022-10-17T06:13:36.685Z,101673.28
2022-10-17T06:16:03.234Z,101662.78
2022-10-17T06:18:29.970Z,101669.34
2022-10-17T06:21:06.198Z,101658.19
2022-10-17T06:23:32.729Z,101659.88
2022-10-17T06:26:04.035Z,101657.97
2022-10-17T06:28:30.842Z,101663.41
2022-10-17T06:30:57.465Z,101676.84
2022-10-17T06:33:24.054Z,101673.88
2022-10-17T06:35:54.886Z,101676.19
2022-10-17T06:38:21.963Z,101677.88
2022-10-17T06:40:48.519Z,101672.19
2022-10-17T06:43:15.297Z,101670.91
2022-10-17T06:45:42.372Z,101671.50
2022-10-17T06:48:09.069Z,101668.34
2022-10-17T06:50:35.646Z,101670.63
2022-10-17T06:53:02.172Z,101668.50
2022-10-17T06:55:28.783Z,101671.41
2022-10-17T06:57:57.111Z,101677.66
2022-10-17T07:00:24.060Z,101680.72
2022-10-17T07:02:50.669Z,101672.69
2022-10-17T07:05:19.201Z,101668.22
2022-10-17T07:07:47.459Z,101679.09
2022-10-17T07:10:16.253Z,101699.59
2022-10-17T07:12:44.757Z,101706.28
2022-10-17T07:15:11.750Z,101690.66
2022-10-17T07:17:38.341Z,101692.13
2022-10-17T07:20:05.184Z,101694.78
2022-10-17T07:22:31.748Z,101686.66
2022-10-17T07:24:58.250Z,101679.88
2022-10-17T07:27:24.757Z,101691.16
2022-10-17T07:29:51.251Z,101693.00
2022-10-17T07:32:17.750Z,101693.75
2022-10-17T07:34:44.222Z,101695.78
2022-10-17T07:37:10.776Z,101697.63
2022-10-17T07:39:37.355Z,101697.53
2022-10-17T07:42:05.137Z,101703.75
2022-10-17T07:44:31.600Z,101716.53
2022-10-17T07:46:58.114Z,101721.31
2022-10-17T07:49:24.618Z,101712.53
2022-10-17T07:51:51.136Z,101712.59
2022-10-17T07:54:17.681Z,101713.47
2022-10-17T07:56:44.211Z,101715.06
2022-10-17T07:59:10.682Z,101718.06
2022-10-17T08:01:37.974Z,101712.84
2022-10-17T08:04:04.505Z,101709.75
2022-10-17T08:06:31.006Z,101720.38
2022-10-17T08:08:58.515Z,101715.84
2022-10-17T08:11:25.463Z,101714.09
2022-10-17T08:13:52.031Z,101703.28
2022-10-17T08:16:18.638Z,101702.28
2022-10-17T08:18:45.291Z,101689.56
2022-10-17T08:21:13.320Z,101688.38
2022-10-17T08:23:40.644Z,101696.72
2022-10-17T08:26:10.775Z,101686.78
2022-10-17T08:28:39.509Z,101685.00
2022-10-17T08:31:09.011Z,101673.03
2022-10-17T08:33:35.542Z,101676.25
2022-10-17T08:36:03.856Z,101675.03
2022-10-17T08:38:35.103Z,101673.25
2022-10-17T08:41:06.723Z,101678.59
2022-10-17T08:43:51.773Z,101677.38
2022-10-17T08:46:20.025Z,101671.25
2022-10-17T08:48:49.585Z,101670.88
2022-10-17T08:51:19.645Z,101683.63
2022-10-17T08:53:56.510Z,101690.38
2022-10-17T08:56:43.945Z,101694.69
2022-10-17T08:59:33.509Z,101692.94
2022-10-17T09:02:26.318Z,101700.81
2022-10-17T09:05:23.860Z,101681.75
2022-10-17T09:08:01.942Z,101685.16
2022-10-17T09:10:33.963Z,101680.88
2022-10-17T09:13:09.191Z,101687.88
2022-10-17T09:16:12.835Z,101692.75
2022-10-17T09:18:43.012Z,101705.22
2022-10-17T09:21:47.583Z,101694.38
2022-10-17T09:24:19.411Z,101698.38
2022-10-17T09:26:46.933Z,101698.53
2022-10-17T09:29:23.221Z,101695.09
2022-10-17T09:32:19.226Z,101699.44
2022-10-17T09:34:45.738Z,101692.97
2022-10-17T09:37:16.014Z,101701.09
2022-10-17T09:39:43.582Z,101691.88
2022-10-17T09:42:13.804Z,101692.00
2022-10-17T09:44:50.619Z,101694.88
2022-10-17T09:47:41.262Z,101682.88
2022-10-17T09:50:26.852Z,101689.06
2022-10-17T09:52:54.302Z,101697.41
2022-10-17T09:55:40.081Z,101696.69
2022-10-17T09:58:08.873Z,101694.63
2022-10-17T10:00:41.273Z,101703.84
2022-10-17T10:03:22.228Z,101698.66
2022-10-17T10:06:02.883Z,101692.09
2022-10-17T10:08:35.490Z,101695.78
2022-10-17T10:11:11.813Z,101698.31
2022-10-17T10:13:40.404Z,101709.69
2022-10-17T10:16:44.583Z,101717.47
2022-10-17T10:19:49.420Z,101718.63
2022-10-17T10:22:17.823Z,101722.25
2022-10-17T10:24:44.592Z,101727.81
2022-10-17T10:27:16.984Z,101723.41
2022-10-17T10:29:49.957Z,101709.38
2022-10-17T10:32:26.308Z,101721.56
2022-10-17T10:35:03.940Z,101724.34
2022-10-17T10:37:39.883Z,101728.25
2022-10-17T10:40:18.019Z,101731.56
2022-10-17T10:42:49.259Z,101728.81
2022-10-17T10:45:47.457Z,101734.06
2022-10-17T10:48:32.590Z,101729.69
2022-10-17T10:51:17.907Z,101740.19
2022-10-17T10:53:54.607Z,101742.69
2022-10-17T10:56:41.629Z,101745.72
2022-10-17T10:59:33.659Z,101743.78
2022-10-17T11:02:00.132Z,101739.91
2022-10-17T11:05:14.172Z,101737.16
2022-10-17T11:07:43.351Z,101740.75
2022-10-17T11:10:25.389Z,101733.03
2022-10-17T11:13:06.732Z,101730.25
2022-10-17T11:15:40.309Z,101743.78
2022-10-17T11:18:33.375Z,101757.63
2022-10-17T11:21:05.969Z,101752.94
2022-10-17T11:23:43.022Z,101757.91
2022-10-17T11:26:19.747Z,101756.81
2022-10-17T11:28:46.356Z,101763.72
2022-10-17T11:31:15.788Z,101751.00
2022-10-17T11:33:57.470Z,101748.81
2022-10-17T11:36:31.211Z,101753.78
2022-10-17T11:39:07.356Z,101743.00
2022-10-17T11:41:53.374Z,101757.94
2022-10-17T11:44:40.157Z,101761.00
2022-10-17T11:47:23.257Z,101764.88
2022-10-17T11:49:54.254Z,101749.41
2022-10-17T11:52:54.895Z,101750.53
2022-10-17T11:55:24.246Z,101755.19
2022-10-17T11:57:59.575Z,101769.84
2022-10-17T12:00:35.816Z,101775.38
2022-10-17T12:03:10.547Z,101777.88
2022-10-17T12:06:06.342Z,101765.69
2022-10-17T12:08:49.767Z,101774.81
2022-10-17T12:11:54.016Z,101812.38
2022-10-17T12:14:43.957Z,101848.53
2022-10-17T12:17:29.061Z,101828.31
2022-10-17T12:20:15.627Z,101844.56
2022-10-17T12:22:49.727Z,101828.41
2022-10-17T12:25:23.078Z,101838.41
2022-10-17T12:27:51.162Z,101815.41
2022-10-17T12:30:24.217Z,101819.84
2022-10-17T12:33:11.447Z,101798.53
2022-10-17T12:35:39.208Z,101792.34
2022-10-17T12:38:17.701Z,101801.13
2022-10-17T12:40:48.618Z,101809.94
2022-10-17T12:43:15.500Z,101800.50
2022-10-17T12:45:57.098Z,101789.75
2022-10-17T12:48:39.499Z,101818.38
2022-10-17T12:54:08.675Z,101829.56
2022-10-17T12:56:39.563Z,101833.91
2022-10-17T12:59:28.605Z,101847.75
2022-10-17T13:01:59.052Z,101868.59
2022-10-17T13:04:28.531Z,101880.44
2022-10-17T13:06:58.613Z,101887.06
2022-10-17T13:09:29.049Z,101886.69
2022-10-17T13:11:58.869Z,101871.16
2022-10-17T13:14:26.886Z,101822.91
2022-10-17T13:16:59.346Z,101821.81
2022-10-17T13:19:31.821Z,101821.22
2022-10-17T13:22:06.732Z,101805.53
2022-10-17T13:24:39.045Z,101792.00
2022-10-17T13:27:20.974Z,101788.41
2022-10-17T13:29:47.728Z,101790.59
2022-10-17T13:32:14.212Z,101791.44
2022-10-17T13:34:40.911Z,101800.78
2022-10-17T13:37:14.808Z,101798.84
2022-10-17T13:39:54.791Z,101802.94
2022-10-17T13:42:29.709Z,101822.50
2022-10-17T13:44:58.312Z,101846.75
2022-10-17T13:47:28.388Z,101854.41
2022-10-17T13:49:55.939Z,101866.78
2022-10-17T13:52:26.892Z,101858.53
2022-10-17T13:54:54.395Z,101846.91
2022-10-17T13:57:21.486Z,101843.59
2022-10-17T13:59:52.853Z,101839.97
2022-10-17T14:02:23.527Z,101848.50
2022-10-17T14:05:17.854Z,101841.91
2022-10-17T14:08:16.721Z,101838.56
2022-10-17T14:10:44.739Z,101843.25
2022-10-17T14:13:37.715Z,101856.44
2022-10-17T14:16:05.043Z,101855.63
2022-10-17T14:18:36.705Z,101864.41
2022-10-17T14:21:40.563Z,101862.47
2022-10-17T14:24:11.754Z,101857.78
2022-10-17T14:26:54.064Z,101867.72
2022-10-17T14:29:22.361Z,101879.59
2022-10-17T14:31:50.737Z,101892.50
2022-10-17T14:34:24.095Z,101893.38
2022-10-17T14:36:52.905Z,101907.38
2022-10-17T14:39:23.558Z,101898.28
2022-10-17T14:41:51.855Z,101905.72
2022-10-17T14:44:26.332Z,101897.47
2022-10-17T14:47:13.227Z,101912.06
2022-10-17T14:50:01.898Z,101905.72
2022-10-17T14:52:30.748Z,101917.56
2022-10-17T14:54:59.586Z,101919.72
2022-10-17T14:57:34.421Z,101931.59
2022-10-17T15:00:01.095Z,101929.09
2022-10-17T15:02:30.645Z,101936.78
2022-10-17T15:05:01.560Z,101934.84
2022-10-17T15:07:29.710Z,101936.19
2022-10-17T15:09:56.316Z,101939.53
2022-10-17T15:12:25.337Z,101941.94
2022-10-17T15:14:53.017Z,101945.78
2022-10-17T15:17:21.072Z,101955.16
2022-10-17T15:19:48.611Z,101952.88
2022-10-17T15:22:16.271Z,101950.97
2022-10-17T15:24:43.180Z,101956.72
2022-10-17T15:27:18.765Z,101955.06
2022-10-17T15:29:45.952Z,101959.97
2022-10-17T15:32:12.930Z,101963.81
2022-10-17T15:34:39.524Z,101958.28
2022-10-17T15:37:14.518Z,101966.56
2022-10-17T15:39:41.017Z,101964.06
2022-10-17T15:42:12.469Z,101969.22
2022-10-17T15:44:40.462Z,101963.72
2022-10-17T15:47:11.593Z,101966.47
2022-10-17T15:49:38.163Z,101967.56
2022-10-17T15:52:05.748Z,101970.56
2022-10-17T15:54:32.272Z,101974.81
2022-10-17T15:56:58.771Z,101977.00
2022-10-17T15:59:30.392Z,101979.06
2022-10-17T16:01:57.008Z,101976.66
2022-10-17T16:04:26.812Z,101975.31
2022-10-17T16:06:53.488Z,101979.84
2022-10-17T16:09:20.024Z,101982.66
2022-10-17T16:11:46.658Z,101984.09
2022-10-17T16:14:16.103Z,101989.84
2022-10-17T16:16:42.855Z,101989.59
2022-10-17T16:19:09.532Z,101983.25
2022-10-17T16:21:38.991Z,101995.09
2022-10-17T16:24:06.432Z,101986.31
2022-10-17T16:26:33.021Z,101992.09
2022-10-17T16:29:02.881Z,101996.53
2022-10-17T16:31:35.250Z,101991.84
2022-10-17T16:34:03.463Z,101992.69
2022-10-17T16:36:30.126Z,102003.13
2022-10-17T16:38:56.685Z,102012.47
2022-10-17T16:41:37.673Z,101995.03
2022-10-17T16:44:06.549Z,102010.22
2022-10-17T16:46:33.924Z,102002.28
2022-10-17T16:49:00.507Z,102010.03
2022-10-17T16:51:29.194Z,102010.31
2022-10-17T16:53:57.055Z,102026.25
2022-10-17T16:56:24.946Z,102025.69
2022-10-17T16:58:51.905Z,102022.94
2022-10-17T17:01:22.507Z,102030.59
2022-10-17T17:03:49.922Z,102032.28
2022-10-17T17:06:20.607Z,102036.97
2022-10-17T17:08:47.431Z,102034.94
2022-10-17T17:11:16.680Z,102044.28
2022-10-17T17:13:43.427Z,102043.13
2022-10-17T17:16:13.518Z,102041.44
2022-10-17T17:18:40.656Z,102041.72
2022-10-17T17:21:09.047Z,102052.72
2022-10-17T17:23:37.236Z,102044.72
2022-10-17T17:26:08.317Z,102053.81
2022-10-17T17:28:35.621Z,102051.91
2022-10-17T17:31:02.705Z,102054.66
2022-10-17T17:33:30.203Z,102062.94
2022-10-17T17:36:02.006Z,102062.31
2022-10-17T17:38:29.800Z,102071.66
2022-10-17T17:40:56.378Z,102073.34
2022-10-17T17:43:23.635Z,102065.09
2022-10-17T17:46:19.476Z,102067.00
2022-10-17T17:48:47.653Z,102071.09
2022-10-17T17:51:17.127Z,102079.38
2022-10-17T17:53:44.343Z,102081.53
2022-10-17T17:56:25.211Z,102082.50
2022-10-17T17:59:00.695Z,102080.81
2022-10-17T18:01:30.069Z,102088.00
2022-10-17T18:04:01.230Z,102079.75
2022-10-17T18:06:28.724Z,102086.13
2022-10-17T18:08:58.124Z,102087.53
2022-10-17T18:11:27.332Z,102088.38
2022-10-17T18:14:00.093Z,102101.78
2022-10-17T18:16:28.175Z,102102.56
2022-10-17T18:18:55.159Z,102104.44
2022-10-17T18:21:21.870Z,102114.28
2022-10-17T18:23:49.224Z,102113.03
2022-10-17T18:26:16.607Z,102116.16
2022-10-17T18:28:44.072Z,102109.97
2022-10-17T18:31:24.351Z,102122.19
2022-10-17T18:33:52.815Z,102124.72
2022-10-17T18:36:19.905Z,102124.84
2022-10-17T18:38:46.445Z,102120.09
2022-10-17T18:41:17.575Z,102117.34
2022-10-17T18:43:45.834Z,102117.34
2022-10-17T18:46:15.521Z,102120.31
2022-10-17T18:48:47.113Z,102122.25
2022-10-17T18:51:16.442Z,102118.66
2022-10-17T18:53:45.310Z,102116.75
2022-10-17T18:56:12.815Z,102114.22
2022-10-17T18:58:40.379Z,102115.56
2022-10-17T19:01:10.822Z,102117.69
2022-10-17T19:03:38.093Z,102125.38
2022-10-17T19:06:08.378Z,102131.34
2022-10-17T19:08:36.281Z,102134.81
2022-10-17T19:11:13.476Z,102136.72
2022-10-17T19:13:40.558Z,102137.47
2022-10-17T19:16:11.989Z,102152.53
2022-10-17T19:18:39.961Z,102148.09
2022-10-17T19:21:09.464Z,102147.50
2022-10-17T19:23:37.405Z,102150.38
2022-10-17T19:26:10.311Z,102149.41
2022-10-17T19:28:38.545Z,102154.31
2022-10-17T19:31:06.074Z,102147.59
2022-10-17T19:33:33.373Z,102147.72
2022-10-17T19:36:03.688Z,102153.94
2022-10-17T19:38:30.633Z,102152.50
2022-10-17T19:40:57.247Z,102148.78
2022-10-17T19:43:23.905Z,102149.72
2022-10-17T19:46:01.802Z,102156.78
2022-10-17T19:48:32.093Z,102167.38
2022-10-17T19:50:58.758Z,102182.44
2022-10-17T19:53:27.897Z,102171.06
2022-10-17T19:55:54.396Z,102182.97
2022-10-17T19:58:20.942Z,102184.03
2022-10-17T20:00:49.646Z,102190.81
2022-10-17T20:03:16.937Z,102190.69
2022-10-17T20:05:43.557Z,102194.97
2022-10-17T20:08:10.142Z,102192.09
2022-10-17T20:10:36.712Z,102199.75
2022-10-17T20:13:03.712Z,102196.38
2022-10-17T20:15:30.255Z,102206.97
2022-10-17T20:17:57.989Z,102211.66
2022-10-17T20:20:25.358Z,102216.75
2022-10-17T20:22:51.859Z,102214.25
2022-10-17T20:25:18.558Z,102222.72
2022-10-17T20:27:45.130Z,102233.09
2022-10-17T20:30:13.341Z,102236.06
2022-10-17T20:32:39.885Z,102237.38
2022-10-17T20:35:07.599Z,102244.75
2022-10-17T20:37:40.008Z,102246.44
2022-10-17T20:40:34.185Z,102254.09
2022-10-17T20:42:56.167Z,102257.41
2022-10-17T20:45:37.376Z,102257.66
2022-10-17T20:48:15.099Z,102265.06
2022-10-17T20:50:42.878Z,102268.63
2022-10-17T20:53:34.791Z,102267.19
2022-10-17T20:56:08.229Z,102275.66
2022-10-17T20:58:35.636Z,102271.47
2022-10-17T21:01:07.262Z,102272.28
2022-10-17T21:03:41.018Z,102275.28
2022-10-17T21:06:10.930Z,102284.56
2022-10-17T21:08:37.981Z,102282.88
2022-10-17T21:11:16.742Z,102274.88
2022-10-17T21:13:44.008Z,102265.19
2022-10-17T21:16:13.332Z,102279.97
2022-10-17T21:18:41.095Z,102282.13
2022-10-17T21:21:16.219Z,102280.44
2022-10-17T21:23:45.164Z,102273.28
2022-10-17T21:26:12.915Z,102271.59
2022-10-17T21:28:40.788Z,102273.75
2022-10-17T21:31:13.445Z,102271.44
2022-10-17T21:33:40.992Z,102275.28
2022-10-17T21:36:08.465Z,102270.84
2022-10-17T21:38:38.693Z,102273.19
2022-10-17T21:41:06.912Z,102283.34
2022-10-17T21:43:34.911Z,102285.47
2022-10-17T21:46:09.139Z,102285.69
2022-10-17T21:48:36.053Z,102286.53
2022-10-17T21:51:05.407Z,102295.81
2022-10-17T21:53:32.177Z,102289.25
2022-10-17T21:56:00.691Z,102286.75
2022-10-17T21:58:28.764Z,102288.44
2022-10-17T22:01:11.715Z,102286.53
2022-10-17T22:03:45.901Z,102287.38
2022-10-17T22:09:18.790Z,102292.00
2022-10-17T22:11:51.044Z,102288.22
2022-10-17T22:14:19.912Z,102291.78
2022-10-17T22:16:47.496Z,102299.19
2022-10-17T22:19:21.013Z,102309.09
2022-10-17T22:21:47.874Z,102310.16
2022-10-17T22:24:16.621Z,102306.34
2022-10-17T22:26:44.540Z,102308.47
2022-10-17T22:29:11.759Z,102312.28
2022-10-17T22:31:39.083Z,102307.03
2022-10-17T22:34:06.960Z,102308.06
2022-10-17T22:36:34.647Z,102309.38
2022-10-17T22:39:01.479Z,102311.53
2022-10-17T22:41:27.978Z,102310.91
2022-10-17T22:43:54.566Z,102311.94
2022-10-17T22:46:21.094Z,102317.66
2022-10-17T22:48:47.656Z,102325.06
2022-10-17T22:51:14.671Z,102321.47
2022-10-17T22:53:41.667Z,102315.97
2022-10-17T22:56:17.893Z,102312.41
2022-10-17T22:58:44.482Z,102320.63
2022-10-17T23:01:15.924Z,102308.84
2022-10-17T23:03:43.300Z,102305.25
2022-10-17T23:06:10.245Z,102304.41
2022-10-17T23:08:37.398Z,102302.72
2022-10-17T23:11:05.229Z,102306.75
2022-10-17T23:13:31.763Z,102307.81
2022-10-17T23:15:58.334Z,102299.81
2022-10-17T23:18:26.869Z,102308.28
2022-10-17T23:20:53.461Z,102301.56
2022-10-17T23:23:20.397Z,102309.78
2022-10-17T23:25:47.648Z,102309.16
2022-10-17T23:28:14.155Z,102306.88
2022-10-17T23:30:41.248Z,102305.19
2022-10-17T23:33:10.472Z,102308.38
2022-10-17T23:35:36.998Z,102302.88
2022-10-17T23:38:03.775Z,102303.34
2022-10-17T23:40:30.523Z,102309.06
2022-10-17T23:42:56.988Z,102305.44
2022-10-17T23:45:23.595Z,102298.75
2022-10-17T23:47:50.171Z,102299.78
2022-10-17T23:50:16.735Z,102299.59
2022-10-17T23:52:43.531Z,102300.84
2022-10-17T23:55:10.509Z,102306.53
2022-10-17T23:57:36.989Z,102315.22
